createdAt,value
2018-04-11T00:00:48.362Z,38.23
2018-04-11T00:03:14.342Z,38.11
2018-04-11T00:05:40.324Z,38.21
2018-04-11T00:08:06.330Z,37.92
2018-04-11T00:10:32.281Z,38.18
2018-04-11T00:12:58.259Z,38.26
2018-04-11T00:15:24.238Z,37.87
2018-04-11T00:17:50.253Z,38.11
2018-04-11T00:20:16.237Z,38.10
2018-04-11T00:22:42.190Z,38.21
2018-04-11T00:25:08.176Z,38.12
2018-04-11T00:27:34.161Z,38.13
2018-04-11T00:30:00.138Z,38.14
2018-04-11T00:32:26.141Z,37.83
2018-04-11T00:34:52.097Z,38.17
2018-04-11T00:37:18.073Z,37.95
2018-04-11T00:39:44.089Z,38.21
2018-04-11T00:42:10.042Z,37.98
2018-04-11T00:44:36.019Z,37.67
2018-04-11T00:47:01.991Z,38.16
2018-04-11T00:49:28.023Z,38.26
2018-04-11T00:51:54.007Z,38.11
2018-04-11T00:54:19.978Z,38.05
2018-04-11T00:56:45.955Z,37.95
2018-04-11T00:59:11.971Z,37.80
2018-04-11T01:01:38.035Z,38.04
2018-04-11T01:04:04.012Z,37.99
2018-04-11T01:06:29.995Z,38.04
2018-04-11T01:08:55.977Z,37.97
2018-04-11T01:11:21.989Z,37.98
2018-04-11T01:13:47.977Z,37.99
2018-04-11T01:16:13.971Z,38.00
2018-04-11T01:18:39.956Z,37.77
2018-04-11T01:21:05.956Z,38.11
2018-04-11T01:23:31.936Z,38.14
2018-04-11T01:25:57.949Z,38.15
2018-04-11T01:28:23.901Z,38.17
2018-04-11T01:30:49.875Z,38.10
2018-04-11T01:33:15.861Z,38.07
2018-04-11T01:35:41.840Z,38.16
2018-04-11T01:38:07.852Z,38.17
2018-04-11T01:40:33.829Z,37.91
2018-04-11T01:42:59.813Z,38.26
2018-04-11T01:45:25.839Z,38.28
2018-04-11T01:47:51.785Z,38.26
2018-04-11T01:50:17.797Z,38.32
2018-04-11T01:52:43.777Z,38.39
2018-04-11T01:55:09.756Z,38.44
2018-04-11T01:57:35.728Z,38.61
2018-04-11T02:00:01.747Z,38.66
2018-04-11T02:02:27.690Z,38.70
2018-04-11T02:04:53.668Z,38.50
2018-04-11T02:07:19.684Z,38.48
2018-04-11T02:09:45.642Z,38.49
2018-04-11T02:12:11.630Z,38.44
2018-04-11T02:14:37.640Z,38.55
2018-04-11T02:17:03.612Z,38.50
2018-04-11T02:19:29.621Z,38.50
2018-04-11T02:21:55.599Z,38.45
2018-04-11T02:24:21.589Z,38.64
2018-04-11T02:26:47.588Z,38.42
2018-04-11T02:29:13.571Z,38.41
2018-04-11T02:31:39.550Z,38.64
2018-04-11T02:34:05.666Z,38.38
2018-04-11T02:36:31.612Z,38.51
2018-04-11T02:38:57.605Z,38.47
2018-04-11T02:41:23.620Z,38.41
2018-04-11T02:43:49.590Z,38.50
2018-04-11T02:46:15.598Z,38.49
2018-04-11T02:48:41.589Z,38.49
2018-04-11T02:51:07.540Z,38.42
2018-04-11T02:53:33.544Z,38.48
2018-04-11T02:55:59.496Z,38.45
2018-04-11T02:58:25.478Z,38.59
2018-04-11T03:00:51.458Z,38.41
2018-04-11T03:03:17.471Z,38.51
2018-04-11T03:05:43.419Z,38.54
2018-04-11T03:08:09.405Z,38.65
2018-04-11T03:10:35.399Z,38.65
2018-04-11T03:13:01.379Z,38.64
2018-04-11T03:15:27.377Z,38.62
2018-04-11T03:17:53.384Z,38.43
2018-04-11T03:20:19.407Z,38.68
2018-04-11T03:22:45.381Z,38.63
2018-04-11T03:25:11.356Z,38.63
2018-04-11T03:27:37.335Z,38.60
2018-04-11T03:30:03.283Z,38.66
2018-04-11T03:32:29.263Z,38.64
2018-04-11T03:34:55.244Z,38.58
2018-04-11T03:37:21.229Z,38.40
2018-04-11T03:39:47.245Z,38.43
2018-04-11T03:42:13.234Z,38.55
2018-04-11T03:44:39.266Z,38.55
2018-04-11T03:47:05.293Z,38.59
2018-04-11T03:49:31.273Z,38.44
2018-04-11T03:51:57.260Z,38.34
2018-04-11T03:54:23.244Z,38.50
2018-04-11T03:56:49.253Z,38.62
2018-04-11T03:59:15.204Z,38.49
2018-04-11T04:01:41.271Z,38.58
2018-04-11T04:04:07.166Z,38.70
2018-04-11T04:06:34.204Z,38.67
2018-04-11T04:09:00.227Z,38.49
2018-04-11T04:11:26.231Z,38.64
2018-04-11T04:13:52.251Z,38.70
2018-04-11T04:16:18.199Z,38.79
2018-04-11T04:18:44.220Z,38.98
2018-04-11T04:21:10.200Z,38.93
2018-04-11T04:23:36.258Z,38.98
2018-04-11T04:26:02.343Z,38.94
2018-04-11T04:28:28.295Z,39.08
2018-04-11T04:30:54.332Z,39.03
2018-04-11T04:33:20.316Z,38.91
2018-04-11T04:35:46.301Z,39.01
2018-04-11T04:38:12.313Z,39.04
2018-04-11T04:40:38.351Z,39.12
2018-04-11T04:43:04.348Z,39.28
2018-04-11T04:45:30.337Z,39.43
2018-04-11T04:47:56.335Z,39.71
2018-04-11T04:50:22.350Z,39.70
2018-04-11T04:52:48.341Z,39.69
2018-04-11T04:55:14.345Z,40.13
2018-04-11T04:57:40.335Z,39.91
2018-04-11T05:00:06.362Z,40.07
2018-04-11T05:02:32.373Z,40.30
2018-04-11T05:04:58.379Z,40.14
2018-04-11T05:07:24.580Z,40.35
2018-04-11T05:09:51.535Z,40.48
2018-04-11T05:12:18.502Z,40.71
2018-04-11T05:14:44.560Z,40.65
2018-04-11T05:17:10.534Z,40.69
2018-04-11T05:19:36.668Z,40.81
2018-04-11T05:22:02.686Z,40.98
2018-04-11T05:24:28.628Z,41.06
2018-04-11T05:26:54.625Z,41.02
2018-04-11T05:29:20.607Z,41.04
2018-04-11T05:31:46.663Z,40.89
2018-04-11T05:34:12.650Z,41.02
2018-04-11T05:36:38.635Z,40.95
2018-04-11T05:39:04.663Z,40.92
2018-04-11T05:41:30.685Z,41.08
2018-04-11T05:43:56.717Z,40.98
2018-04-11T05:46:22.745Z,40.85
2018-04-11T05:48:48.723Z,41.19
2018-04-11T05:51:14.735Z,41.00
2018-04-11T05:53:40.778Z,41.18
2018-04-11T05:56:06.783Z,41.01
2018-04-11T05:58:32.732Z,40.91
2018-04-11T06:00:58.764Z,40.69
2018-04-11T06:03:24.772Z,40.40
2018-04-11T06:05:50.747Z,40.20
2018-04-11T06:08:16.746Z,40.03
2018-04-11T06:10:42.782Z,39.86
2018-04-11T06:13:08.783Z,39.79
2018-04-11T06:15:34.841Z,39.72
2018-04-11T06:18:00.790Z,39.66
2018-04-11T06:20:26.813Z,38.50
2018-04-11T06:22:52.947Z,39.36
2018-04-11T06:25:18.814Z,39.76
2018-04-11T06:27:44.845Z,39.97
2018-04-11T06:30:10.831Z,40.13
2018-04-11T06:32:36.821Z,39.58
2018-04-11T06:35:02.834Z,40.08
2018-04-11T06:37:28.822Z,39.79
2018-04-11T06:39:54.803Z,39.44
2018-04-11T06:42:20.782Z,39.53
2018-04-11T06:44:46.813Z,39.66
2018-04-11T06:47:15.031Z,39.72
2018-04-11T06:49:41.045Z,40.05
2018-04-11T06:52:07.030Z,40.01
2018-04-11T06:54:33.005Z,39.98
2018-04-11T06:56:58.956Z,39.95
2018-04-11T06:59:25.051Z,39.94
2018-04-11T07:01:50.980Z,39.91
2018-04-11T07:04:16.926Z,39.83
2018-04-11T07:06:42.903Z,39.79
2018-04-11T07:09:08.927Z,39.64
2018-04-11T07:11:34.920Z,39.71
2018-04-11T07:14:00.896Z,39.47
2018-04-11T07:16:26.900Z,39.29
2018-04-11T07:18:52.883Z,39.11
2018-04-11T07:21:18.863Z,39.41
2018-04-11T07:23:44.876Z,39.29
2018-04-11T07:26:10.829Z,39.36
2018-04-11T07:28:36.828Z,39.17
2018-04-11T07:31:02.835Z,39.33
2018-04-11T07:33:28.785Z,39.38
2018-04-11T07:35:54.811Z,39.45
2018-04-11T07:38:20.774Z,39.61
2018-04-11T07:40:46.752Z,39.83
2018-04-11T07:43:12.762Z,39.91
2018-04-11T07:45:38.712Z,39.68
2018-04-11T07:48:04.700Z,39.71
2018-04-11T07:50:30.712Z,39.62
2018-04-11T07:52:56.663Z,39.64
2018-04-11T07:55:22.680Z,39.82
2018-04-11T07:57:48.656Z,39.74
2018-04-11T08:00:14.665Z,39.66
2018-04-11T08:02:40.614Z,39.80
2018-04-11T08:05:06.582Z,39.91
2018-04-11T08:07:32.571Z,39.95
2018-04-11T08:09:58.571Z,40.36
2018-04-11T08:12:24.597Z,40.43
2018-04-11T08:14:50.596Z,40.64
2018-04-11T08:17:16.515Z,40.46
2018-04-11T08:19:42.501Z,40.38
2018-04-11T08:22:08.514Z,40.42
2018-04-11T08:24:34.480Z,40.81
2018-04-11T08:27:00.495Z,40.91
2018-04-11T08:29:26.449Z,40.96
2018-04-11T08:31:52.420Z,42.19
2018-04-11T08:34:18.432Z,41.45
2018-04-11T08:36:44.379Z,41.52
2018-04-11T08:39:10.365Z,40.97
2018-04-11T08:41:36.361Z,40.37
2018-04-11T08:44:02.352Z,40.50
2018-04-11T08:46:28.363Z,40.43
2018-04-11T08:48:54.381Z,40.40
2018-04-11T08:51:20.393Z,40.13
2018-04-11T08:53:46.374Z,40.12
2018-04-11T08:56:12.391Z,40.02
2018-04-11T08:58:38.406Z,39.90
2018-04-11T09:01:04.386Z,39.68
2018-04-11T09:03:30.335Z,39.72
2018-04-11T09:05:56.374Z,39.61
2018-04-11T09:08:22.330Z,39.53
2018-04-11T09:10:48.318Z,39.63
2018-04-11T09:13:14.311Z,39.56
2018-04-11T09:15:40.338Z,39.58
2018-04-11T09:18:06.327Z,39.43
2018-04-11T09:20:32.348Z,39.41
2018-04-11T09:22:58.358Z,39.40
2018-04-11T09:25:24.338Z,39.43
2018-04-11T09:27:50.437Z,39.40
2018-04-11T09:30:16.390Z,39.51
2018-04-11T09:32:42.339Z,39.57
2018-04-11T09:35:08.382Z,39.53
2018-04-11T09:37:34.332Z,39.56
2018-04-11T09:40:00.341Z,39.49
2018-04-11T09:42:26.339Z,39.50
2018-04-11T09:44:52.312Z,39.55
2018-04-11T09:47:18.361Z,39.39
2018-04-11T09:49:44.348Z,39.30
2018-04-11T09:52:10.453Z,39.34
2018-04-11T09:54:36.442Z,39.19
2018-04-11T09:57:02.528Z,39.24
2018-04-11T09:59:28.537Z,39.18
2018-04-11T10:01:54.486Z,39.19
2018-04-11T10:04:20.505Z,39.24
2018-04-11T10:06:46.517Z,39.24
2018-04-11T10:09:12.459Z,39.22
2018-04-11T10:11:38.478Z,39.18
2018-04-11T10:14:04.436Z,39.15
2018-04-11T10:16:30.451Z,39.13
2018-04-11T10:18:56.407Z,39.26
2018-04-11T10:21:22.420Z,39.19
2018-04-11T10:23:48.402Z,39.32
2018-04-11T10:26:14.465Z,39.30
2018-04-11T10:28:40.412Z,39.28
2018-04-11T10:31:06.363Z,39.31
2018-04-11T10:33:32.344Z,39.29
2018-04-11T10:35:58.328Z,39.27
2018-04-11T10:38:24.308Z,39.27
2018-04-11T10:40:50.307Z,39.16
2018-04-11T10:43:16.289Z,39.24
2018-04-11T10:45:42.298Z,39.23
2018-04-11T10:48:08.330Z,38.96
2018-04-11T10:50:34.336Z,39.02
2018-04-11T10:53:00.312Z,38.90
2018-04-11T10:55:26.267Z,38.90
2018-04-11T10:57:52.288Z,38.90
2018-04-11T11:00:18.239Z,38.83
2018-04-11T11:02:44.273Z,38.84
2018-04-11T11:05:10.276Z,38.87
2018-04-11T11:07:36.273Z,38.84
2018-04-11T11:10:02.228Z,38.96
2018-04-11T11:12:28.209Z,38.91
2018-04-11T11:14:54.220Z,38.98
2018-04-11T11:17:20.200Z,38.99
2018-04-11T11:19:46.176Z,39.05
2018-04-11T11:22:12.159Z,39.03
2018-04-11T11:24:38.173Z,39.00
2018-04-11T11:27:04.155Z,39.05
2018-04-11T11:29:30.144Z,39.17
2018-04-11T11:31:56.162Z,39.15
2018-04-11T11:34:22.127Z,39.09
2018-04-11T11:36:48.113Z,39.05
2018-04-11T11:39:14.128Z,38.70
2018-04-11T11:41:40.073Z,38.86
2018-04-11T11:44:06.077Z,38.81
2018-04-11T11:46:32.035Z,38.86
2018-04-11T11:48:58.044Z,38.95
2018-04-11T11:51:24.023Z,39.13
2018-04-11T11:53:50.009Z,39.06
2018-04-11T11:56:16.022Z,38.90
2018-04-11T11:58:42.007Z,38.78
2018-04-11T12:01:07.955Z,40.31
2018-04-11T12:03:33.933Z,40.17
2018-04-11T12:05:59.955Z,39.96
2018-04-11T12:08:25.978Z,40.05
2018-04-11T12:10:51.924Z,40.03
2018-04-11T12:13:17.914Z,40.07
2018-04-11T12:15:43.959Z,39.94
2018-04-11T12:18:09.912Z,39.97
2018-04-11T12:20:35.903Z,39.92
2018-04-11T12:23:01.919Z,39.89
2018-04-11T12:25:27.945Z,39.74
2018-04-11T12:27:53.918Z,39.80
2018-04-11T12:30:19.963Z,39.69
2018-04-11T12:32:45.941Z,39.62
2018-04-11T12:35:11.957Z,39.56
2018-04-11T12:37:37.931Z,39.48
2018-04-11T12:40:03.909Z,39.45
2018-04-11T12:42:29.893Z,39.43
2018-04-11T12:44:55.880Z,39.38
2018-04-11T12:47:21.874Z,39.34
2018-04-11T12:49:47.860Z,39.22
2018-04-11T12:52:13.847Z,39.14
2018-04-11T12:54:39.876Z,39.05
2018-04-11T12:57:05.865Z,39.02
2018-04-11T12:59:31.881Z,38.96
2018-04-11T13:01:57.840Z,38.98
2018-04-11T13:04:23.830Z,39.03
2018-04-11T13:06:49.852Z,39.03
2018-04-11T13:09:15.865Z,38.97
2018-04-11T13:11:41.891Z,38.99
2018-04-11T13:14:07.903Z,39.06
2018-04-11T13:16:33.885Z,39.22
2018-04-11T13:19:00.221Z,39.42
2018-04-11T13:21:26.272Z,39.37
2018-04-11T13:23:52.256Z,39.37
2018-04-11T13:26:18.273Z,39.40
2018-04-11T13:28:44.270Z,39.42
2018-04-11T13:31:10.265Z,39.43
2018-04-11T13:33:36.263Z,39.40
2018-04-11T13:36:02.253Z,39.41
2018-04-11T13:38:28.269Z,39.34
2018-04-11T13:40:54.276Z,39.41
2018-04-11T13:43:20.285Z,39.33
2018-04-11T13:45:46.232Z,39.32
2018-04-11T13:48:12.215Z,39.31
2018-04-11T13:50:38.229Z,39.32
2018-04-11T13:53:04.186Z,39.31
2018-04-11T13:55:30.204Z,39.29
2018-04-11T13:57:56.191Z,39.27
2018-04-11T14:00:22.236Z,39.31
2018-04-11T14:02:48.182Z,39.32
2018-04-11T14:05:14.157Z,39.32
2018-04-11T14:07:40.149Z,39.35
2018-04-11T14:10:06.172Z,39.31
2018-04-11T14:12:32.156Z,39.30
2018-04-11T14:14:58.136Z,39.32
2018-04-11T14:17:24.142Z,39.31
2018-04-11T14:19:50.187Z,39.15
2018-04-11T14:22:16.104Z,38.91
2018-04-11T14:24:42.117Z,39.11
2018-04-11T14:27:08.112Z,39.13
2018-04-11T14:29:34.108Z,39.17
2018-04-11T14:32:00.095Z,39.11
2018-04-11T14:34:26.096Z,39.07
2018-04-11T14:36:52.109Z,39.04
2018-04-11T14:39:18.122Z,39.00
2018-04-11T14:41:44.190Z,38.98
2018-04-11T14:44:10.178Z,38.83
2018-04-11T14:46:36.159Z,38.87
2018-04-11T14:49:02.182Z,38.74
2018-04-11T14:51:28.199Z,38.84
2018-04-11T14:53:54.157Z,39.17
2018-04-11T14:56:20.151Z,39.44
2018-04-11T14:58:46.140Z,39.44
2018-04-11T15:01:12.211Z,39.31
2018-04-11T15:03:38.184Z,39.33
2018-04-11T15:06:04.198Z,39.32
2018-04-11T15:08:30.230Z,39.26
2018-04-11T15:10:56.527Z,39.24
2018-04-11T15:13:22.542Z,39.26
2018-04-11T15:15:48.555Z,39.32
2018-04-11T15:18:14.573Z,39.32
2018-04-11T15:20:40.997Z,39.32
2018-04-11T15:23:07.184Z,39.25
2018-04-11T15:25:33.168Z,39.29
2018-04-11T15:27:59.152Z,39.29
2018-04-11T15:30:25.143Z,39.38
2018-04-11T15:32:51.404Z,39.45
2018-04-11T15:35:17.381Z,39.41
2018-04-11T15:37:43.340Z,39.36
2018-04-11T15:40:09.464Z,39.36
2018-04-11T15:42:35.474Z,39.30
2018-04-11T15:45:01.428Z,39.33
2018-04-11T15:47:27.410Z,39.34
2018-04-11T15:49:53.427Z,39.32
2018-04-11T15:52:19.426Z,39.32
2018-04-11T15:54:45.378Z,39.34
2018-04-11T15:57:11.408Z,39.33
2018-04-11T15:59:37.363Z,39.49
2018-04-11T16:02:03.371Z,39.60
2018-04-11T16:04:29.398Z,39.71
2018-04-11T16:06:55.388Z,39.68
2018-04-11T16:09:21.445Z,39.67
2018-04-11T16:11:47.436Z,39.64
2018-04-11T16:14:13.443Z,39.77
2018-04-11T16:16:39.396Z,39.69
2018-04-11T16:19:05.452Z,39.76
2018-04-11T16:21:31.429Z,39.78
2018-04-11T16:23:57.498Z,39.83
2018-04-11T16:26:23.563Z,39.85
2018-04-11T16:28:49.601Z,39.97
2018-04-11T16:31:15.661Z,39.97
2018-04-11T16:33:41.976Z,40.37
2018-04-11T16:36:08.011Z,40.42
2018-04-11T16:38:33.995Z,40.32
2018-04-11T16:40:59.963Z,40.46
2018-04-11T16:43:25.977Z,40.60
2018-04-11T16:45:51.957Z,40.66
2018-04-11T16:48:17.939Z,40.61
2018-04-11T16:50:43.924Z,40.72
2018-04-11T16:53:09.916Z,40.77
2018-04-11T16:55:36.041Z,40.79
2018-04-11T16:58:02.081Z,41.16
2018-04-11T17:00:28.108Z,41.24
2018-04-11T17:02:54.060Z,41.34
2018-04-11T17:05:20.047Z,41.41
2018-04-11T17:07:46.160Z,41.21
2018-04-11T17:10:12.148Z,41.63
2018-04-11T17:12:38.165Z,41.54
2018-04-11T17:15:04.627Z,41.54
2018-04-11T17:17:30.624Z,41.41
2018-04-11T17:19:56.577Z,41.05
2018-04-11T17:22:22.879Z,41.19
2018-04-11T17:24:48.856Z,41.21
2018-04-11T17:27:14.843Z,41.18
2018-04-11T17:29:40.828Z,40.93
2018-04-11T17:32:06.812Z,41.36
2018-04-11T17:34:32.836Z,41.31
2018-04-11T17:36:58.820Z,41.31
2018-04-11T17:39:24.782Z,41.38
2018-04-11T17:41:51.314Z,41.26
2018-04-11T17:44:17.332Z,41.18
2018-04-11T17:46:43.349Z,41.15
2018-04-11T17:49:09.343Z,41.11
2018-04-11T17:51:35.375Z,40.97
2018-04-11T17:54:01.343Z,41.11
2018-04-11T17:56:27.356Z,41.30
2018-04-11T17:58:53.663Z,41.47
2018-04-11T18:01:19.641Z,41.20
2018-04-11T18:03:46.171Z,41.04
2018-04-11T18:06:12.192Z,40.97
2018-04-11T18:08:38.859Z,40.95
2018-04-11T18:11:04.845Z,40.89
2018-04-11T18:13:30.815Z,40.79
2018-04-11T18:15:56.845Z,41.21
2018-04-11T18:18:22.816Z,41.35
2018-04-11T18:20:48.803Z,41.32
2018-04-11T18:23:14.840Z,41.36
2018-04-11T18:25:40.921Z,41.18
2018-04-11T18:28:10.713Z,41.21
2018-04-11T18:30:36.958Z,41.40
2018-04-11T18:33:02.987Z,41.63
2018-04-11T18:35:29.092Z,41.65
2018-04-11T18:37:55.118Z,41.40
2018-04-11T18:40:21.117Z,41.79
2018-04-11T18:42:47.153Z,41.69
2018-04-11T18:45:13.173Z,41.37
2018-04-11T18:47:39.325Z,41.64
2018-04-11T18:50:05.403Z,41.75
2018-04-11T18:52:31.423Z,41.85
2018-04-11T18:54:57.463Z,41.65
2018-04-11T18:57:23.488Z,41.78
2018-04-11T18:59:49.649Z,41.67
2018-04-11T19:02:15.634Z,41.65
2018-04-11T19:04:41.664Z,41.75
2018-04-11T19:07:07.655Z,41.44
2018-04-11T19:09:33.678Z,41.51
2018-04-11T19:11:59.700Z,41.63
2018-04-11T19:14:25.675Z,41.87
2018-04-11T19:16:51.683Z,41.79
2018-04-11T19:19:17.717Z,41.67
2018-04-11T19:21:43.684Z,41.88
2018-04-11T19:24:09.672Z,42.09
2018-04-11T19:26:35.654Z,43.11
2018-04-11T19:29:01.679Z,43.19
2018-04-11T19:31:27.678Z,42.80
2018-04-11T19:33:53.872Z,42.83
2018-04-11T19:36:19.855Z,42.61
2018-04-11T19:38:45.859Z,43.29
2018-04-11T19:41:11.883Z,43.21
2018-04-11T19:43:37.829Z,43.72
2018-04-11T19:46:03.808Z,43.93
2018-04-11T19:48:29.799Z,43.83
2018-04-11T19:50:55.817Z,44.14
2018-04-11T19:53:21.819Z,43.58
2018-04-11T19:55:47.802Z,44.06
2018-04-11T19:58:13.774Z,44.32
2018-04-11T20:00:39.795Z,44.19
2018-04-11T20:03:05.789Z,44.66
2018-04-11T20:05:31.772Z,44.56
2018-04-11T20:07:57.785Z,44.36
2018-04-11T20:10:23.743Z,43.62
2018-04-11T20:12:49.736Z,44.40
2018-04-11T20:15:15.831Z,44.21
2018-04-11T20:17:41.815Z,44.05
2018-04-11T20:20:07.802Z,43.85
2018-04-11T20:22:33.822Z,43.52
2018-04-11T20:24:59.875Z,43.67
2018-04-11T20:27:25.862Z,43.36
2018-04-11T20:29:51.892Z,43.28
2018-04-11T20:32:17.919Z,43.06
2018-04-11T20:34:43.984Z,43.28
2018-04-11T20:37:09.997Z,43.30
2018-04-11T20:39:35.944Z,42.87
2018-04-11T20:42:02.071Z,43.08
2018-04-11T20:44:28.047Z,42.90
2018-04-11T20:46:54.059Z,43.08
2018-04-11T20:49:20.049Z,42.96
2018-04-11T20:51:46.053Z,42.71
2018-04-11T20:54:12.090Z,42.53
2018-04-11T20:56:38.040Z,42.88
2018-04-11T20:59:04.018Z,42.90
2018-04-11T21:01:30.004Z,42.78
2018-04-11T21:03:55.994Z,42.77
2018-04-11T21:06:21.989Z,42.73
2018-04-11T21:08:47.969Z,42.64
2018-04-11T21:11:13.960Z,42.61
2018-04-11T21:13:40.007Z,42.59
2018-04-11T21:16:06.002Z,42.54
2018-04-11T21:18:31.939Z,42.40
2018-04-11T21:20:57.930Z,42.40
2018-04-11T21:23:23.916Z,42.47
2018-04-11T21:25:49.899Z,42.28
2018-04-11T21:28:15.913Z,42.26
2018-04-11T21:30:41.922Z,42.34
2018-04-11T21:33:07.908Z,42.22
2018-04-11T21:35:33.899Z,42.27
2018-04-11T21:37:59.886Z,42.24
2018-04-11T21:40:25.866Z,42.17
2018-04-11T21:42:51.898Z,42.15
2018-04-11T21:45:17.914Z,42.11
2018-04-11T21:47:43.847Z,42.13
2018-04-11T21:50:09.850Z,42.05
2018-04-11T21:52:35.832Z,42.03
2018-04-11T21:55:01.811Z,42.01
2018-04-11T21:57:27.819Z,42.00
2018-04-11T21:59:53.804Z,41.97
2018-04-11T22:02:19.819Z,41.93
2018-04-11T22:04:45.951Z,41.91
2018-04-11T22:07:11.942Z,41.87
2018-04-11T22:09:37.962Z,41.79
2018-04-11T22:12:03.913Z,41.79
2018-04-11T22:14:29.890Z,41.73
2018-04-11T22:16:55.871Z,41.74
2018-04-11T22:19:21.848Z,41.71
2018-04-11T22:21:47.842Z,41.65
2018-04-11T22:24:13.821Z,41.64
2018-04-11T22:26:39.835Z,41.58
2018-04-11T22:29:05.848Z,41.59
2018-04-11T22:31:31.796Z,41.55
2018-04-11T22:33:57.782Z,41.51
2018-04-11T22:36:23.849Z,41.51
2018-04-11T22:38:49.743Z,41.51
2018-04-11T22:41:15.719Z,41.45
2018-04-11T22:43:41.739Z,41.48
2018-04-11T22:46:07.761Z,41.41
2018-04-11T22:48:33.748Z,41.42
2018-04-11T22:50:59.758Z,41.34
2018-04-11T22:53:25.713Z,41.35
2018-04-11T22:55:51.774Z,41.28
2018-04-11T22:58:17.723Z,41.26
2018-04-11T23:00:43.736Z,41.21
2018-04-11T23:03:09.714Z,41.18
2018-04-11T23:05:35.693Z,41.17
2018-04-11T23:08:01.683Z,41.17
2018-04-11T23:10:27.662Z,41.15
2018-04-11T23:12:53.706Z,41.14
2018-04-11T23:15:19.685Z,41.15
2018-04-11T23:17:45.698Z,41.14
2018-04-11T23:20:11.660Z,41.00
2018-04-11T23:22:37.643Z,41.09
2018-04-11T23:25:03.671Z,41.10
2018-04-11T23:27:29.655Z,41.01
2018-04-11T23:29:55.664Z,41.04
2018-04-11T23:32:21.649Z,40.92
2018-04-11T23:34:47.631Z,41.03
2018-04-11T23:37:13.612Z,40.98
2018-04-11T23:39:39.591Z,40.92
2018-04-11T23:42:05.577Z,40.92
2018-04-11T23:44:31.559Z,40.81
2018-04-11T23:46:57.546Z,40.80
2018-04-11T23:49:23.527Z,40.91
2018-04-11T23:51:49.564Z,40.88
2018-04-11T23:54:15.560Z,40.74
2018-04-11T23:56:41.542Z,40.71
2018-04-11T23:59:07.533Z,40.70
